createdAt,value
2018-05-13T00:00:27.795Z,4.80
2018-05-13T00:01:27.768Z,5.50
2018-05-13T00:02:27.743Z,5.10
2018-05-13T00:03:27.729Z,5.20
2018-05-13T00:04:27.712Z,5.40
2018-05-13T00:05:27.697Z,5.00
2018-05-13T00:06:27.690Z,4.80
2018-05-13T00:07:27.662Z,5.10
2018-05-13T00:08:27.645Z,5.20
2018-05-13T00:09:27.627Z,5.10
2018-05-13T00:10:27.616Z,5.00
2018-05-13T00:11:27.624Z,5.10
2018-05-13T00:12:27.576Z,5.10
2018-05-13T00:13:27.559Z,5.10
2018-05-13T00:14:27.542Z,5.10
2018-05-13T00:15:27.526Z,5.00
2018-05-13T00:16:27.508Z,5.10
2018-05-13T00:17:27.501Z,4.50
2018-05-13T00:18:27.476Z,5.10
2018-05-13T00:19:27.457Z,5.60
2018-05-13T00:20:27.440Z,5.50
2018-05-13T00:21:27.423Z,5.30
2018-05-13T00:22:27.425Z,5.50
2018-05-13T00:23:27.389Z,5.10
2018-05-13T00:24:27.374Z,5.50
2018-05-13T00:25:27.355Z,5.10
2018-05-13T00:26:27.338Z,5.10
2018-05-13T00:27:27.320Z,5.10
2018-05-13T00:28:27.317Z,5.50
2018-05-13T00:29:27.287Z,5.50
2018-05-13T00:30:27.269Z,5.40
2018-05-13T00:31:27.253Z,5.20
2018-05-13T00:32:27.238Z,5.30
2018-05-13T00:33:27.474Z,5.60
2018-05-13T00:34:27.201Z,5.50
2018-05-13T00:35:27.184Z,5.20
2018-05-13T00:36:27.168Z,5.80
2018-05-13T00:37:27.150Z,5.40
2018-05-13T00:38:27.133Z,5.30
2018-05-13T00:39:27.127Z,5.10
2018-05-13T00:40:27.101Z,5.00
2018-05-13T00:41:27.081Z,5.30
2018-05-13T00:42:27.129Z,5.30
2018-05-13T00:43:27.047Z,5.20
2018-05-13T00:44:27.046Z,5.20
2018-05-13T00:45:27.014Z,5.70
2018-05-13T00:46:26.999Z,5.00
2018-05-13T00:47:26.979Z,5.80
2018-05-13T00:48:26.964Z,5.20
2018-05-13T00:49:26.950Z,5.40
2018-05-13T00:50:26.938Z,5.40
2018-05-13T00:51:26.911Z,5.50
2018-05-13T00:52:26.896Z,5.50
2018-05-13T00:53:26.877Z,5.70
2018-05-13T00:54:26.862Z,5.40
2018-05-13T00:55:27.123Z,5.10
2018-05-13T00:56:26.827Z,5.00
2018-05-13T00:57:26.815Z,5.00
2018-05-13T00:58:26.793Z,5.90
2018-05-13T00:59:26.778Z,7.80
2018-05-13T01:00:26.759Z,5.90
2018-05-13T01:01:26.750Z,5.80
2018-05-13T01:02:26.724Z,5.10
2018-05-13T01:03:26.706Z,5.30
2018-05-13T01:04:26.692Z,5.50
2018-05-13T01:05:26.676Z,5.50
2018-05-13T01:06:26.672Z,5.00
2018-05-13T01:07:26.638Z,5.20
2018-05-13T01:08:26.622Z,5.30
2018-05-13T01:09:26.606Z,5.30
2018-05-13T01:10:26.588Z,5.40
2018-05-13T01:11:26.571Z,5.10
2018-05-13T01:12:26.563Z,5.20
2018-05-13T01:13:26.537Z,5.40
2018-05-13T01:14:26.520Z,6.10
2018-05-13T01:15:26.502Z,5.20
2018-05-13T01:16:26.491Z,5.50
2018-05-13T01:17:26.482Z,5.50
2018-05-13T01:18:26.453Z,5.00
2018-05-13T01:19:26.437Z,5.80
2018-05-13T01:20:26.418Z,5.10
2018-05-13T01:21:26.402Z,5.40
2018-05-13T01:22:26.385Z,5.50
2018-05-13T01:23:26.378Z,5.20
2018-05-13T01:24:26.352Z,5.50
2018-05-13T01:25:26.338Z,5.40
2018-05-13T01:26:26.352Z,5.60
2018-05-13T01:27:26.304Z,5.50
2018-05-13T01:28:26.315Z,5.40
2018-05-13T01:29:26.266Z,5.40
2018-05-13T01:30:26.251Z,5.00
2018-05-13T01:31:26.232Z,5.50
2018-05-13T01:32:26.216Z,5.50
2018-05-13T01:33:26.198Z,5.30
2018-05-13T01:34:26.190Z,5.70
2018-05-13T01:35:26.165Z,6.80
2018-05-13T01:36:26.148Z,6.40
2018-05-13T01:37:26.137Z,6.30
2018-05-13T01:38:26.116Z,6.40
2018-05-13T01:39:26.130Z,6.70
2018-05-13T01:40:26.083Z,6.40
2018-05-13T01:41:26.065Z,6.60
2018-05-13T01:42:26.048Z,6.70
2018-05-13T01:43:26.030Z,7.30
2018-05-13T01:44:26.012Z,6.60
2018-05-13T01:45:26.006Z,6.40
2018-05-13T01:46:25.980Z,7.10
2018-05-13T01:47:25.962Z,7.10
2018-05-13T01:48:25.947Z,7.10
2018-05-13T01:49:25.932Z,7.80
2018-05-13T01:50:25.926Z,6.80
2018-05-13T01:51:25.895Z,7.10
2018-05-13T01:52:25.877Z,7.60
2018-05-13T01:53:25.861Z,7.00
2018-05-13T01:54:25.845Z,7.30
2018-05-13T01:55:25.826Z,7.80
2018-05-13T01:56:25.824Z,7.00
2018-05-13T01:57:25.793Z,7.70
2018-05-13T01:58:25.777Z,7.20
2018-05-13T01:59:25.759Z,7.60
2018-05-13T02:00:25.746Z,7.90
2018-05-13T02:01:25.726Z,7.20
2018-05-13T02:02:25.719Z,7.30
2018-05-13T02:03:25.756Z,7.50
2018-05-13T02:04:25.674Z,7.00
2018-05-13T02:05:25.661Z,7.20
2018-05-13T02:06:25.647Z,6.60
2018-05-13T02:07:25.639Z,7.30
2018-05-13T02:08:25.606Z,7.40
2018-05-13T02:09:25.594Z,7.80
2018-05-13T02:10:25.574Z,7.10
2018-05-13T02:11:25.554Z,7.90
2018-05-13T02:12:25.541Z,7.50
2018-05-13T02:13:25.561Z,7.70
2018-05-13T02:14:25.511Z,7.60
2018-05-13T02:15:25.487Z,7.60
2018-05-13T02:16:25.469Z,7.90
2018-05-13T02:17:25.452Z,7.60
2018-05-13T02:18:25.438Z,7.80
2018-05-13T02:19:25.427Z,7.50
2018-05-13T02:20:25.401Z,8.20
2018-05-13T02:21:25.385Z,8.30
2018-05-13T02:22:25.367Z,7.60
2018-05-13T02:23:25.350Z,7.80
2018-05-13T02:24:25.341Z,8.30
2018-05-13T02:25:25.316Z,7.70
2018-05-13T02:26:25.299Z,8.80
2018-05-13T02:27:25.281Z,7.60
2018-05-13T02:28:25.272Z,8.30
2018-05-13T02:29:25.905Z,8.60
2018-05-13T02:30:25.230Z,8.00
2018-05-13T02:31:25.213Z,8.80
2018-05-13T02:32:25.195Z,8.70
2018-05-13T02:33:25.180Z,8.70
2018-05-13T02:34:25.161Z,8.80
2018-05-13T02:35:25.160Z,8.60
2018-05-13T02:36:25.125Z,8.80
2018-05-13T02:37:25.109Z,8.80
2018-05-13T02:38:25.093Z,9.10
2018-05-13T02:39:25.080Z,9.40
2018-05-13T02:40:25.059Z,11.00
2018-05-13T02:41:25.051Z,10.10
2018-05-13T02:42:25.025Z,9.00
2018-05-13T02:43:25.009Z,9.80
2018-05-13T02:44:24.993Z,9.60
2018-05-13T02:45:24.974Z,9.20
2018-05-13T02:46:24.967Z,9.40
2018-05-13T02:47:24.938Z,9.40
2018-05-13T02:48:24.924Z,11.00
2018-05-13T02:49:24.904Z,10.00
2018-05-13T02:50:24.888Z,9.40
2018-05-13T02:51:24.881Z,9.60
2018-05-13T02:52:24.854Z,8.90
2018-05-13T02:53:24.835Z,9.40
2018-05-13T02:54:24.829Z,8.80
2018-05-13T02:55:24.800Z,8.50
2018-05-13T02:56:24.785Z,8.20
2018-05-13T02:57:24.781Z,7.90
2018-05-13T02:58:24.753Z,7.90
2018-05-13T02:59:24.732Z,7.50
2018-05-13T03:00:24.715Z,6.70
2018-05-13T03:01:24.699Z,7.20
2018-05-13T03:02:24.688Z,7.10
2018-05-13T03:03:24.676Z,7.70
2018-05-13T03:04:24.649Z,8.00
2018-05-13T03:05:24.629Z,8.80
2018-05-13T03:06:24.611Z,8.50
2018-05-13T03:07:24.597Z,8.70
2018-05-13T03:08:24.589Z,8.50
2018-05-13T03:09:24.562Z,8.60
2018-05-13T03:10:24.545Z,8.30
2018-05-13T03:11:24.527Z,8.70
2018-05-13T03:12:24.514Z,8.40
2018-05-13T03:13:24.509Z,8.80
2018-05-13T03:14:24.479Z,8.70
2018-05-13T03:15:24.458Z,8.40
2018-05-13T03:16:24.441Z,8.60
2018-05-13T03:17:24.436Z,8.40
2018-05-13T03:18:24.407Z,8.70
2018-05-13T03:19:24.424Z,8.30
2018-05-13T03:20:24.373Z,8.60
2018-05-13T03:21:24.359Z,9.00
2018-05-13T03:22:24.339Z,7.80
2018-05-13T03:23:24.321Z,8.50
2018-05-13T03:24:24.305Z,9.60
2018-05-13T03:25:24.295Z,8.80
2018-05-13T03:26:24.270Z,8.90
2018-05-13T03:27:24.252Z,9.00
2018-05-13T03:28:24.236Z,8.80
2018-05-13T03:29:24.219Z,8.90
2018-05-13T03:30:24.219Z,9.70
2018-05-13T03:31:24.184Z,9.20
2018-05-13T03:32:24.168Z,9.80
2018-05-13T03:33:24.150Z,10.00
2018-05-13T03:34:24.139Z,10.10
2018-05-13T03:35:24.116Z,9.50
2018-05-13T03:36:24.115Z,9.50
2018-05-13T03:37:24.082Z,9.60
2018-05-13T03:38:24.065Z,10.20
2018-05-13T03:39:24.047Z,9.50
2018-05-13T03:40:24.027Z,10.00
2018-05-13T03:41:24.013Z,10.70
2018-05-13T03:42:24.007Z,10.20
2018-05-13T03:43:23.981Z,10.40
2018-05-13T03:44:23.964Z,10.80
2018-05-13T03:45:23.944Z,9.80
2018-05-13T03:46:23.925Z,9.90
2018-05-13T03:47:23.942Z,10.00
2018-05-13T03:48:23.890Z,9.50
2018-05-13T03:49:23.880Z,10.50
2018-05-13T03:50:23.860Z,10.10
2018-05-13T03:51:23.841Z,9.50
2018-05-13T03:52:23.822Z,9.50
2018-05-13T03:53:23.822Z,9.70
2018-05-13T03:54:23.788Z,9.90
2018-05-13T03:55:23.770Z,9.90
2018-05-13T03:56:23.753Z,9.60
2018-05-13T03:57:23.745Z,9.50
2018-05-13T03:58:23.718Z,10.20
2018-05-13T03:59:23.715Z,9.40
2018-05-13T04:00:23.684Z,10.20
2018-05-13T04:01:23.667Z,10.10
2018-05-13T04:02:23.649Z,9.60
2018-05-13T04:03:23.630Z,10.00
2018-05-13T04:04:23.633Z,10.40
2018-05-13T04:05:23.597Z,9.80
2018-05-13T04:06:23.581Z,9.80
2018-05-13T04:07:23.619Z,9.80
2018-05-13T04:08:23.546Z,9.60
2018-05-13T04:09:23.528Z,9.80
2018-05-13T04:10:23.523Z,9.40
2018-05-13T04:11:23.492Z,9.40
2018-05-13T04:12:23.475Z,9.00
2018-05-13T04:13:23.459Z,9.90
2018-05-13T04:14:23.446Z,10.00
2018-05-13T04:15:23.423Z,8.80
2018-05-13T04:16:23.419Z,9.50
2018-05-13T04:17:23.392Z,9.30
2018-05-13T04:18:23.372Z,9.40
2018-05-13T04:19:23.354Z,9.30
2018-05-13T04:20:23.337Z,9.60
2018-05-13T04:21:23.320Z,9.20
2018-05-13T04:22:23.312Z,10.10
2018-05-13T04:23:23.284Z,9.30
2018-05-13T04:24:23.267Z,9.40
2018-05-13T04:25:23.251Z,9.00
2018-05-13T04:26:23.234Z,10.00
2018-05-13T04:27:23.232Z,9.10
2018-05-13T04:28:23.198Z,8.70
2018-05-13T04:29:23.184Z,8.30
2018-05-13T04:30:23.165Z,8.80
2018-05-13T04:31:23.145Z,8.70
2018-05-13T04:32:23.129Z,9.10
2018-05-13T04:33:23.124Z,9.00
2018-05-13T04:34:23.096Z,8.90
2018-05-13T04:35:23.077Z,8.20
2018-05-13T04:36:23.063Z,9.10
2018-05-13T04:37:23.044Z,8.50
2018-05-13T04:38:23.026Z,8.00
2018-05-13T04:39:23.019Z,7.90
2018-05-13T04:40:22.992Z,8.50
2018-05-13T04:41:22.975Z,7.70
2018-05-13T04:42:22.956Z,8.10
2018-05-13T04:43:22.939Z,8.40
2018-05-13T04:44:22.935Z,8.20
2018-05-13T04:45:22.904Z,8.20
2018-05-13T04:46:22.888Z,7.80
2018-05-13T04:47:22.870Z,8.10
2018-05-13T04:48:22.853Z,7.80
2018-05-13T04:49:22.837Z,7.80
2018-05-13T04:50:22.835Z,7.70
2018-05-13T04:51:22.802Z,8.10
2018-05-13T04:52:22.784Z,8.40
2018-05-13T04:53:22.769Z,7.80
2018-05-13T04:54:22.750Z,8.10
2018-05-13T04:55:22.737Z,7.70
2018-05-13T04:56:22.727Z,7.60
2018-05-13T04:57:22.699Z,7.70
2018-05-13T04:58:22.684Z,6.80
2018-05-13T04:59:22.666Z,7.30
2018-05-13T05:00:22.648Z,7.50
2018-05-13T05:01:22.648Z,7.70
2018-05-13T05:02:22.616Z,7.60
2018-05-13T05:03:22.598Z,7.10
2018-05-13T05:04:22.580Z,7.20
2018-05-13T05:05:22.564Z,7.00
2018-05-13T05:06:22.548Z,7.00
2018-05-13T05:07:22.544Z,6.20
2018-05-13T05:08:22.517Z,6.50
2018-05-13T05:09:22.497Z,6.20
2018-05-13T05:10:22.480Z,6.50
2018-05-13T05:11:22.464Z,6.60
2018-05-13T05:12:22.449Z,6.20
2018-05-13T05:13:22.442Z,6.20
2018-05-13T05:14:22.414Z,6.10
2018-05-13T05:15:22.397Z,5.80
2018-05-13T05:16:22.379Z,5.70
2018-05-13T05:17:22.364Z,5.70
2018-05-13T05:18:22.359Z,5.80
2018-05-13T05:19:22.330Z,5.80
2018-05-13T05:20:22.314Z,5.70
2018-05-13T05:21:22.297Z,6.00
2018-05-13T05:22:22.282Z,5.60
2018-05-13T05:23:22.263Z,6.10
2018-05-13T05:24:22.260Z,6.00
2018-05-13T05:25:22.233Z,5.70
2018-05-13T05:26:22.216Z,6.20
2018-05-13T05:27:22.197Z,5.40
2018-05-13T05:28:22.180Z,5.60
2018-05-13T05:29:22.164Z,5.80
2018-05-13T05:30:22.158Z,5.40
2018-05-13T05:31:22.132Z,5.10
2018-05-13T05:32:22.116Z,5.90
2018-05-13T05:33:22.099Z,5.80
2018-05-13T05:34:22.083Z,5.50
2018-05-13T05:35:22.078Z,5.60
2018-05-13T05:36:22.048Z,5.40
2018-05-13T05:37:22.035Z,5.80
2018-05-13T05:38:22.019Z,5.60
2018-05-13T05:39:22.000Z,5.50
2018-05-13T05:40:21.985Z,5.20
2018-05-13T05:41:21.980Z,5.10
2018-05-13T05:42:21.953Z,5.40
2018-05-13T05:43:21.936Z,5.40
2018-05-13T05:44:21.920Z,5.30
2018-05-13T05:45:21.903Z,5.30
2018-05-13T05:46:21.889Z,5.10
2018-05-13T05:47:21.881Z,5.20
2018-05-13T05:48:21.861Z,5.10
2018-05-13T05:49:21.841Z,5.50
2018-05-13T05:50:21.823Z,5.90
2018-05-13T05:51:21.805Z,5.00
2018-05-13T05:52:22.067Z,5.50
2018-05-13T05:53:21.776Z,5.60
2018-05-13T05:54:21.761Z,5.60
2018-05-13T05:55:21.745Z,5.90
2018-05-13T05:56:21.729Z,5.70
2018-05-13T05:57:21.713Z,5.50
2018-05-13T05:58:21.957Z,6.20
2018-05-13T05:59:21.680Z,6.00
2018-05-13T06:00:21.667Z,5.40
2018-05-13T06:01:21.651Z,5.70
2018-05-13T06:02:21.637Z,5.70
2018-05-13T06:03:21.654Z,5.50
2018-05-13T06:04:21.618Z,6.10
2018-05-13T06:05:21.590Z,6.20
2018-05-13T06:06:21.575Z,5.60
2018-05-13T06:07:21.562Z,5.60
2018-05-13T06:08:21.542Z,5.80
2018-05-13T06:09:21.542Z,4.90
2018-05-13T06:10:21.516Z,5.50
2018-05-13T06:11:21.495Z,5.20
2018-05-13T06:12:21.516Z,6.00
2018-05-13T06:13:21.467Z,5.80
2018-05-13T06:14:21.450Z,5.80
2018-05-13T06:15:21.449Z,5.60
2018-05-13T06:16:21.416Z,6.00
2018-05-13T06:17:21.403Z,5.50
2018-05-13T06:18:21.390Z,5.90
2018-05-13T06:19:21.373Z,5.50
2018-05-13T06:20:21.357Z,5.50
2018-05-13T06:21:21.352Z,5.60
2018-05-13T06:22:21.326Z,5.20
2018-05-13T06:23:21.312Z,5.60
2018-05-13T06:24:21.296Z,5.50
2018-05-13T06:25:21.354Z,5.50
2018-05-13T06:26:21.552Z,5.30
2018-05-13T06:27:21.250Z,5.70
2018-05-13T06:28:21.233Z,5.30
2018-05-13T06:29:21.220Z,5.20
2018-05-13T06:30:21.204Z,5.80
2018-05-13T06:31:21.189Z,5.50
2018-05-13T06:32:21.203Z,5.20
2018-05-13T06:33:21.162Z,5.70
2018-05-13T06:34:21.144Z,5.30
2018-05-13T06:35:21.128Z,5.40
2018-05-13T06:36:21.112Z,5.30
2018-05-13T06:37:21.099Z,5.70
2018-05-13T06:38:21.341Z,5.70
2018-05-13T06:39:21.067Z,6.00
2018-05-13T06:40:21.051Z,5.40
2018-05-13T06:41:21.039Z,5.70
2018-05-13T06:42:21.022Z,5.70
2018-05-13T06:43:21.006Z,5.30
2018-05-13T06:44:21.005Z,5.40
2018-05-13T06:45:20.990Z,5.10
2018-05-13T06:46:20.963Z,5.50
2018-05-13T06:47:20.945Z,5.50
2018-05-13T06:48:20.931Z,4.90
2018-05-13T06:49:20.915Z,5.50
2018-05-13T06:50:20.915Z,5.30
2018-05-13T06:51:20.913Z,5.10
2018-05-13T06:52:20.870Z,5.40
2018-05-13T06:53:20.855Z,5.60
2018-05-13T06:54:20.840Z,5.70
2018-05-13T06:55:20.824Z,5.40
2018-05-13T06:56:20.827Z,6.00
2018-05-13T06:57:20.864Z,5.70
2018-05-13T06:58:20.779Z,5.70
2018-05-13T06:59:20.763Z,5.70
2018-05-13T07:00:20.752Z,5.90
2018-05-13T07:01:20.744Z,5.90
2018-05-13T07:02:20.718Z,6.20
2018-05-13T07:03:20.709Z,6.10
2018-05-13T07:04:20.687Z,6.70
2018-05-13T07:05:20.671Z,6.10
2018-05-13T07:06:20.691Z,6.10
2018-05-13T07:07:20.640Z,6.00
2018-05-13T07:08:20.640Z,6.20
2018-05-13T07:09:20.612Z,6.70
2018-05-13T07:10:20.631Z,5.70
2018-05-13T07:11:20.579Z,5.60
2018-05-13T07:12:20.578Z,6.40
2018-05-13T07:13:20.548Z,6.00
2018-05-13T07:14:20.532Z,5.30
2018-05-13T07:15:20.518Z,5.40
2018-05-13T07:16:20.503Z,5.60
2018-05-13T07:17:20.491Z,5.40
2018-05-13T07:18:20.480Z,5.50
2018-05-13T07:19:20.460Z,5.40
2018-05-13T07:20:20.440Z,5.50
2018-05-13T07:21:20.425Z,5.70
2018-05-13T07:22:20.411Z,5.40
2018-05-13T07:23:20.400Z,5.40
2018-05-13T07:24:20.388Z,5.00
2018-05-13T07:25:20.360Z,5.30
2018-05-13T07:26:20.344Z,5.60
2018-05-13T07:27:20.328Z,5.90
2018-05-13T07:28:20.326Z,6.00
2018-05-13T07:29:20.296Z,5.80
2018-05-13T07:30:20.284Z,6.10
2018-05-13T07:31:20.266Z,6.90
2018-05-13T07:32:20.248Z,6.80
2018-05-13T07:33:20.232Z,7.00
2018-05-13T07:34:20.231Z,6.60
2018-05-13T07:35:20.199Z,7.30
2018-05-13T07:36:20.184Z,7.20
2018-05-13T07:37:20.168Z,7.10
2018-05-13T07:38:20.151Z,6.60
2018-05-13T07:39:20.139Z,7.40
2018-05-13T07:40:20.132Z,7.00
2018-05-13T07:41:20.106Z,8.50
2018-05-13T07:42:20.091Z,7.70
2018-05-13T07:43:20.157Z,7.10
2018-05-13T07:44:20.058Z,7.70
2018-05-13T07:45:20.055Z,7.20
2018-05-13T07:46:20.028Z,7.50
2018-05-13T07:47:20.014Z,7.10
2018-05-13T07:48:19.997Z,7.50
2018-05-13T07:49:19.983Z,8.40
2018-05-13T07:50:19.966Z,7.60
2018-05-13T07:51:19.960Z,8.00
2018-05-13T07:52:19.935Z,8.30
2018-05-13T07:53:19.923Z,8.00
2018-05-13T07:54:19.903Z,9.10
2018-05-13T07:55:19.886Z,8.50
2018-05-13T07:56:19.904Z,8.10
2018-05-13T07:57:19.856Z,8.70
2018-05-13T07:58:19.841Z,9.40
2018-05-13T07:59:19.824Z,8.90
2018-05-13T08:00:19.808Z,9.40
2018-05-13T08:01:19.796Z,9.60
2018-05-13T08:02:19.794Z,9.40
2018-05-13T08:03:19.760Z,9.30
2018-05-13T08:04:19.753Z,8.90
2018-05-13T08:05:19.729Z,9.20
2018-05-13T08:06:19.715Z,9.00
2018-05-13T08:07:19.724Z,10.40
2018-05-13T08:08:19.683Z,10.10
2018-05-13T08:09:19.668Z,10.60
2018-05-13T08:10:19.652Z,10.50
2018-05-13T08:11:19.635Z,9.80
2018-05-13T08:12:19.620Z,10.30
2018-05-13T08:13:19.618Z,10.50
2018-05-13T08:14:19.589Z,10.30
2018-05-13T08:15:19.572Z,11.00
2018-05-13T08:16:19.556Z,10.00
2018-05-13T08:17:19.542Z,10.80
2018-05-13T08:18:19.529Z,10.90
2018-05-13T08:19:19.519Z,11.70
2018-05-13T08:20:19.603Z,11.90
2018-05-13T08:21:19.479Z,12.40
2018-05-13T08:22:19.466Z,11.40
2018-05-13T08:23:19.447Z,12.50
2018-05-13T08:24:19.444Z,12.00
2018-05-13T08:25:19.415Z,12.50
2018-05-13T08:26:19.400Z,12.30
2018-05-13T08:27:19.387Z,12.20
2018-05-13T08:28:19.370Z,13.10
2018-05-13T08:29:19.351Z,12.90
2018-05-13T08:30:19.344Z,13.20
2018-05-13T08:31:19.333Z,12.50
2018-05-13T08:32:19.303Z,14.10
2018-05-13T08:33:19.286Z,14.30
2018-05-13T08:34:19.276Z,14.50
2018-05-13T08:35:19.291Z,14.10
2018-05-13T08:36:19.239Z,15.00
2018-05-13T08:37:19.223Z,15.10
2018-05-13T08:38:19.208Z,15.70
2018-05-13T08:39:19.192Z,14.00
2018-05-13T08:40:19.175Z,16.10
2018-05-13T08:41:19.168Z,17.10
2018-05-13T08:42:19.148Z,16.50
2018-05-13T08:43:19.127Z,17.10
2018-05-13T08:44:19.109Z,15.90
2018-05-13T08:45:19.101Z,16.10
2018-05-13T08:46:19.089Z,16.80
2018-05-13T08:47:19.063Z,17.80
2018-05-13T08:48:19.046Z,18.50
2018-05-13T08:49:19.032Z,19.10
2018-05-13T08:50:19.015Z,19.30
2018-05-13T08:51:19.011Z,20.00
2018-05-13T08:52:18.982Z,20.20
2018-05-13T08:53:18.967Z,20.70
2018-05-13T08:54:18.950Z,19.70
2018-05-13T08:55:18.935Z,21.60
2018-05-13T08:56:18.917Z,21.60
2018-05-13T08:57:18.918Z,22.30
2018-05-13T08:58:18.888Z,24.30
2018-05-13T08:59:18.870Z,25.10
2018-05-13T09:00:18.856Z,24.10
2018-05-13T09:01:18.836Z,25.20
2018-05-13T09:02:18.820Z,26.10
2018-05-13T09:03:18.825Z,26.10
2018-05-13T09:04:18.789Z,27.30
2018-05-13T09:05:18.772Z,29.50
2018-05-13T09:06:18.756Z,28.20
2018-05-13T09:07:18.745Z,28.80
2018-05-13T09:08:18.737Z,29.00
2018-05-13T09:09:18.710Z,29.10
2018-05-13T09:10:18.691Z,29.70
2018-05-13T09:11:18.675Z,32.30
2018-05-13T09:12:18.657Z,30.30
2018-05-13T09:13:18.954Z,31.80
2018-05-13T09:14:18.640Z,31.90
2018-05-13T09:15:18.611Z,31.40
2018-05-13T09:16:18.612Z,33.00
2018-05-13T09:17:18.575Z,32.50
2018-05-13T09:18:18.560Z,32.60
2018-05-13T09:19:18.801Z,30.50
2018-05-13T09:20:18.530Z,31.50
2018-05-13T09:21:18.516Z,30.00
2018-05-13T09:22:18.495Z,32.60
2018-05-13T09:23:18.480Z,34.60
2018-05-13T09:24:18.464Z,35.10
2018-05-13T09:25:18.457Z,36.10
2018-05-13T09:26:18.427Z,33.20
2018-05-13T09:27:18.411Z,34.00
2018-05-13T09:28:18.398Z,32.60
2018-05-13T09:29:18.378Z,34.40
2018-05-13T09:30:18.380Z,32.30
2018-05-13T09:31:18.352Z,33.10
2018-05-13T09:32:18.333Z,32.20
2018-05-13T09:33:18.315Z,29.70
2018-05-13T09:34:18.300Z,32.00
2018-05-13T09:35:18.283Z,30.10
2018-05-13T09:36:18.281Z,31.20
2018-05-13T09:37:18.272Z,32.00
2018-05-13T09:38:18.233Z,31.60
2018-05-13T09:39:18.226Z,33.20
2018-05-13T09:40:18.202Z,32.10
2018-05-13T09:41:18.205Z,34.70
2018-05-13T09:42:18.164Z,33.30
2018-05-13T09:43:18.146Z,33.60
2018-05-13T09:44:18.131Z,32.50
2018-05-13T09:45:18.114Z,35.50
2018-05-13T09:46:18.108Z,35.00
2018-05-13T09:47:18.084Z,36.80
2018-05-13T09:48:18.064Z,36.70
2018-05-13T09:49:18.053Z,37.30
2018-05-13T09:50:18.030Z,36.70
2018-05-13T09:51:18.077Z,36.10
2018-05-13T09:52:17.996Z,38.40
2018-05-13T09:53:17.980Z,38.40
2018-05-13T09:54:17.964Z,40.40
2018-05-13T09:55:17.948Z,33.90
2018-05-13T09:56:17.928Z,38.30
2018-05-13T09:57:17.923Z,36.50
2018-05-13T09:58:17.898Z,33.40
2018-05-13T09:59:17.879Z,33.10
2018-05-13T10:00:17.863Z,30.30
2018-05-13T10:01:17.846Z,35.90
2018-05-13T10:02:17.841Z,34.80
2018-05-13T10:03:17.813Z,33.70
2018-05-13T10:04:17.798Z,32.70
2018-05-13T10:05:17.781Z,30.50
2018-05-13T10:06:17.763Z,35.60
2018-05-13T10:07:17.755Z,38.30
2018-05-13T10:08:17.730Z,38.40
2018-05-13T10:09:17.713Z,34.10
2018-05-13T10:10:17.695Z,38.60
2018-05-13T10:11:17.683Z,39.70
2018-05-13T10:12:17.692Z,39.50
2018-05-13T10:13:17.646Z,39.00
2018-05-13T10:14:17.634Z,39.40
2018-05-13T10:15:17.612Z,40.30
2018-05-13T10:16:17.595Z,37.20
2018-05-13T10:17:17.579Z,37.00
2018-05-13T10:18:17.578Z,36.70
2018-05-13T10:19:17.544Z,38.40
2018-05-13T10:20:17.529Z,38.00
2018-05-13T10:21:17.512Z,36.90
2018-05-13T10:22:17.502Z,38.80
2018-05-13T10:23:17.479Z,40.80
2018-05-13T10:24:17.476Z,37.50
2018-05-13T10:25:17.446Z,40.60
2018-05-13T10:26:17.430Z,39.00
2018-05-13T10:27:17.466Z,41.60
2018-05-13T10:28:17.394Z,40.10
2018-05-13T10:29:17.426Z,40.40
2018-05-13T10:30:17.361Z,40.20
2018-05-13T10:31:17.343Z,40.20
2018-05-13T10:32:17.327Z,40.30
2018-05-13T10:33:17.310Z,41.30
2018-05-13T10:34:17.307Z,41.40
2018-05-13T10:35:17.279Z,40.60
2018-05-13T10:36:17.323Z,39.10
2018-05-13T10:37:17.242Z,37.30
2018-05-13T10:38:17.226Z,41.20
2018-05-13T10:39:17.208Z,41.40
2018-05-13T10:40:17.206Z,41.00
2018-05-13T10:41:17.175Z,29.50
2018-05-13T10:42:17.160Z,35.30
2018-05-13T10:43:17.140Z,33.90
2018-05-13T10:44:17.125Z,41.10
2018-05-13T10:45:17.106Z,41.50
2018-05-13T10:46:17.123Z,41.70
2018-05-13T10:47:17.071Z,41.90
2018-05-13T10:48:17.055Z,41.90
2018-05-13T10:49:17.037Z,43.10
2018-05-13T10:50:17.022Z,43.50
2018-05-13T10:51:17.006Z,43.50
2018-05-13T10:52:16.994Z,43.30
2018-05-13T10:53:16.971Z,43.60
2018-05-13T10:54:16.953Z,45.30
2018-05-13T10:55:16.936Z,45.50
2018-05-13T10:56:16.917Z,45.30
2018-05-13T10:57:16.911Z,44.60
2018-05-13T10:58:16.886Z,46.50
2018-05-13T10:59:16.867Z,46.00
2018-05-13T11:00:16.853Z,45.10
2018-05-13T11:01:16.834Z,39.90
2018-05-13T11:02:16.829Z,38.80
2018-05-13T11:03:16.799Z,40.70
2018-05-13T11:04:16.782Z,40.10
2018-05-13T11:05:16.764Z,41.70
2018-05-13T11:06:16.747Z,41.10
2018-05-13T11:07:16.729Z,41.90
2018-05-13T11:08:16.721Z,42.10
2018-05-13T11:09:16.695Z,43.50
2018-05-13T11:10:16.690Z,40.70
2018-05-13T11:11:16.666Z,42.00
2018-05-13T11:12:16.645Z,42.60
2018-05-13T11:13:16.649Z,39.80
2018-05-13T11:14:16.610Z,43.20
2018-05-13T11:15:16.593Z,44.80
2018-05-13T11:16:16.577Z,43.00
2018-05-13T11:17:16.561Z,41.50
2018-05-13T11:18:16.542Z,41.40
2018-05-13T11:19:16.537Z,41.40
2018-05-13T11:20:16.508Z,40.70
2018-05-13T11:21:16.492Z,43.80
2018-05-13T11:22:16.474Z,43.60
2018-05-13T11:23:16.457Z,42.70
2018-05-13T11:24:16.442Z,45.60
2018-05-13T11:25:16.436Z,40.00
2018-05-13T11:26:16.406Z,46.10
2018-05-13T11:27:16.388Z,43.30
2018-05-13T11:28:16.375Z,44.30
2018-05-13T11:29:16.355Z,41.00
2018-05-13T11:30:16.350Z,39.10
2018-05-13T11:31:16.323Z,44.40
2018-05-13T11:32:16.301Z,32.90
2018-05-13T11:33:16.286Z,45.90
2018-05-13T11:34:16.271Z,47.20
2018-05-13T11:35:16.251Z,47.60
2018-05-13T11:36:16.244Z,46.20
2018-05-13T11:37:16.218Z,51.60
2018-05-13T11:38:16.200Z,50.90
2018-05-13T11:39:16.181Z,45.60
2018-05-13T11:40:16.166Z,50.80
2018-05-13T11:41:16.157Z,52.30
2018-05-13T11:42:16.132Z,48.30
2018-05-13T11:43:16.113Z,49.70
2018-05-13T11:44:16.096Z,50.00
2018-05-13T11:45:16.124Z,51.20
2018-05-13T11:46:16.320Z,52.50
2018-05-13T11:47:16.047Z,50.30
2018-05-13T11:48:16.028Z,48.60
2018-05-13T11:49:16.009Z,49.90
2018-05-13T11:50:15.995Z,48.50
2018-05-13T11:51:15.976Z,40.80
2018-05-13T11:52:15.972Z,43.30
2018-05-13T11:53:15.941Z,44.40
2018-05-13T11:54:15.925Z,46.60
2018-05-13T11:55:15.908Z,47.20
2018-05-13T11:56:15.889Z,49.20
2018-05-13T11:57:15.873Z,48.90
2018-05-13T11:58:15.864Z,48.80
2018-05-13T11:59:15.838Z,49.40
2018-05-13T12:00:15.822Z,51.70
2018-05-13T12:01:15.803Z,53.40
2018-05-13T12:02:15.869Z,52.60
2018-05-13T12:03:15.785Z,51.80
2018-05-13T12:04:15.753Z,48.10
2018-05-13T12:05:15.742Z,49.00
2018-05-13T12:06:15.718Z,48.00
2018-05-13T12:07:15.699Z,49.00
2018-05-13T12:08:15.698Z,47.40
2018-05-13T12:09:15.669Z,44.50
2018-05-13T12:10:15.654Z,45.50
2018-05-13T12:11:15.637Z,46.90
2018-05-13T12:12:15.616Z,48.00
2018-05-13T12:13:15.597Z,49.00
2018-05-13T12:14:15.590Z,44.00
2018-05-13T12:15:15.634Z,41.50
2018-05-13T12:16:15.548Z,45.40
2018-05-13T12:17:15.530Z,41.00
2018-05-13T12:18:15.515Z,43.30
2018-05-13T12:19:15.512Z,41.60
2018-05-13T12:20:15.488Z,41.10
2018-05-13T12:21:15.466Z,42.30
2018-05-13T12:22:15.443Z,44.70
2018-05-13T12:23:15.434Z,46.20
2018-05-13T12:24:15.415Z,45.50
2018-05-13T12:25:15.406Z,43.60
2018-05-13T12:26:15.378Z,44.80
2018-05-13T12:27:15.359Z,48.10
2018-05-13T12:28:15.342Z,43.20
2018-05-13T12:29:15.326Z,45.10
2018-05-13T12:30:15.308Z,44.00
2018-05-13T12:31:15.302Z,43.00
2018-05-13T12:32:15.274Z,45.60
2018-05-13T12:33:15.255Z,46.60
2018-05-13T12:34:15.240Z,47.30
2018-05-13T12:35:15.226Z,47.20
2018-05-13T12:36:15.217Z,47.90
2018-05-13T12:37:15.188Z,45.50
2018-05-13T12:38:15.172Z,47.00
2018-05-13T12:39:15.153Z,46.40
2018-05-13T12:40:15.136Z,45.80
2018-05-13T12:41:15.119Z,45.70
2018-05-13T12:42:15.111Z,47.60
2018-05-13T12:43:15.084Z,49.90
2018-05-13T12:44:15.068Z,45.10
2018-05-13T12:45:15.052Z,46.50
2018-05-13T12:46:15.036Z,47.00
2018-05-13T12:47:15.049Z,43.80
2018-05-13T12:48:15.000Z,46.20
2018-05-13T12:49:14.983Z,47.10
2018-05-13T12:50:14.973Z,48.30
2018-05-13T12:51:14.950Z,46.60
2018-05-13T12:52:14.934Z,48.20
2018-05-13T12:53:14.924Z,48.90
2018-05-13T12:54:14.899Z,47.40
2018-05-13T12:55:14.878Z,47.30
2018-05-13T12:56:14.909Z,48.90
2018-05-13T12:57:14.846Z,49.70
2018-05-13T12:58:14.846Z,48.60
2018-05-13T12:59:14.812Z,50.00
2018-05-13T13:00:14.796Z,45.50
2018-05-13T13:01:14.779Z,46.10
2018-05-13T13:02:14.762Z,47.60
2018-05-13T13:03:14.744Z,45.30
2018-05-13T13:04:14.734Z,45.70
2018-05-13T13:05:14.709Z,48.10
2018-05-13T13:06:14.728Z,48.20
2018-05-13T13:07:14.682Z,46.90